sensor_id;sensor_type;location;lat;lon;timestamp;P1;durP1;ratioP1;P2;durP2;ratioP2
3465;SDS011;1747;48.884;9.160;2024-01-15T00:00:32;27.58;;;10.00;;
3465;SDS011;1747;48.884;9.160;2024-01-15T00:02:59;26.95;;;9.30;;
3465;SDS011;1747;48.884;9.160;2024-01-15T00:05:26;25.88;;;9.82;;
3465;SDS011;1747;48.884;9.160;2024-01-15T00:07:54;31.48;;;10.90;;
3465;SDS011;1747;48.884;9.160;2024-01-15T00:10:21;31.00;;;9.90;;
3465;SDS011;1747;48.884;9.160;2024-01-15T00:12:47;23.95;;;8.88;;
3465;SDS011;1747;48.884;9.160;2024-01-15T00:15:14;20.80;;;8.35;;
3465;SDS011;1747;48.884;9.160;2024-01-15T00:17:41;29.02;;;10.05;;
3465;SDS011;1747;48.884;9.160;2024-01-15T00:20:08;30.10;;;10.75;;
3465;SDS011;1747;48.884;9.160;2024-01-15T00:22:36;26.58;;;9.25;;
3465;SDS011;1747;48.884;9.160;2024-01-15T00:25:04;26.58;;;9.93;;
3465;SDS011;1747;48.884;9.160;2024-01-15T00:27:31;25.73;;;8.32;;
3465;SDS011;1747;48.884;9.160;2024-01-15T00:29:58;30.05;;;9.07;;
3465;SDS011;1747;48.884;9.160;2024-01-15T00:32:25;30.33;;;8.95;;
3465;SDS011;1747;48.884;9.160;2024-01-15T00:34:52;25.35;;;9.15;;
3465;SDS011;1747;48.884;9.160;2024-01-15T00:37:18;28.55;;;8.20;;
3465;SDS011;1747;48.884;9.160;2024-01-15T00:39:45;26.05;;;7.93;;
3465;SDS011;1747;48.884;9.160;2024-01-15T00:42:13;23.25;;;8.65;;
3465;SDS011;1747;48.884;9.160;2024-01-15T00:44:40;17.70;;;7.35;;
3465;SDS011;1747;48.884;9.160;2024-01-15T00:47:08;21.10;;;7.80;;
3465;SDS011;1747;48.884;9.160;2024-01-15T00:49:34;26.35;;;6.90;;
3465;SDS011;1747;48.884;9.160;2024-01-15T00:52:01;20.85;;;7.25;;
3465;SDS011;1747;48.884;9.160;2024-01-15T00:54:28;22.45;;;7.75;;
3465;SDS011;1747;48.884;9.160;2024-01-15T00:56:55;18.42;;;6.93;;
3465;SDS011;1747;48.884;9.160;2024-01-15T00:59:23;16.70;;;6.72;;
3465;SDS011;1747;48.884;9.160;2024-01-15T01:01:49;19.30;;;7.38;;
3465;SDS011;1747;48.884;9.160;2024-01-15T01:04:16;23.48;;;8.02;;
3465;SDS011;1747;48.884;9.160;2024-01-15T01:06:43;18.10;;;6.72;;
3465;SDS011;1747;48.884;9.160;2024-01-15T01:09:10;23.92;;;7.18;;
3465;SDS011;1747;48.884;9.160;2024-01-15T01:11:36;21.73;;;7.32;;
3465;SDS011;1747;48.884;9.160;2024-01-15T01:14:03;20.13;;;6.70;;
3465;SDS011;1747;48.884;9.160;2024-01-15T01:16:32;18.58;;;7.03;;
3465;SDS011;1747;48.884;9.160;2024-01-15T01:19:03;21.67;;;6.95;;
3465;SDS011;1747;48.884;9.160;2024-01-15T01:21:30;21.38;;;7.00;;
3465;SDS011;1747;48.884;9.160;2024-01-15T01:23:57;17.50;;;6.47;;
3465;SDS011;1747;48.884;9.160;2024-01-15T01:26:24;22.45;;;7.22;;
3465;SDS011;1747;48.884;9.160;2024-01-15T01:28:50;21.92;;;7.13;;
3465;SDS011;1747;48.884;9.160;2024-01-15T01:31:17;17.00;;;6.85;;
3465;SDS011;1747;48.884;9.160;2024-01-15T01:33:45;18.30;;;6.93;;
3465;SDS011;1747;48.884;9.160;2024-01-15T01:36:12;19.65;;;7.22;;
3465;SDS011;1747;48.884;9.160;2024-01-15T01:38:39;16.58;;;6.55;;
3465;SDS011;1747;48.884;9.160;2024-01-15T01:41:07;18.83;;;7.15;;
3465;SDS011;1747;48.884;9.160;2024-01-15T01:43:33;17.30;;;7.53;;
3465;SDS011;1747;48.884;9.160;2024-01-15T01:46:00;19.60;;;6.90;;
3465;SDS011;1747;48.884;9.160;2024-01-15T01:48:28;14.27;;;6.05;;
3465;SDS011;1747;48.884;9.160;2024-01-15T01:50:57;19.45;;;7.13;;
3465;SDS011;1747;48.884;9.160;2024-01-15T01:53:26;20.98;;;6.93;;
3465;SDS011;1747;48.884;9.160;2024-01-15T01:55:53;16.95;;;6.57;;
3465;SDS011;1747;48.884;9.160;2024-01-15T01:58:22;21.70;;;7.60;;
3465;SDS011;1747;48.884;9.160;2024-01-15T02:00:49;19.30;;;6.65;;
3465;SDS011;1747;48.884;9.160;2024-01-15T02:03:15;18.05;;;6.70;;
3465;SDS011;1747;48.884;9.160;2024-01-15T02:05:43;18.25;;;6.47;;
3465;SDS011;1747;48.884;9.160;2024-01-15T02:08:12;17.38;;;6.53;;
3465;SDS011;1747;48.884;9.160;2024-01-15T02:10:38;18.17;;;7.10;;
3465;SDS011;1747;48.884;9.160;2024-01-15T02:13:05;19.30;;;6.10;;
3465;SDS011;1747;48.884;9.160;2024-01-15T02:15:32;21.70;;;6.97;;
3465;SDS011;1747;48.884;9.160;2024-01-15T02:17:59;18.17;;;6.95;;
3465;SDS011;1747;48.884;9.160;2024-01-15T02:20:27;18.52;;;6.90;;
3465;SDS011;1747;48.884;9.160;2024-01-15T02:23:01;17.80;;;6.78;;
3465;SDS011;1747;48.884;9.160;2024-01-15T02:25:35;17.23;;;6.28;;
3465;SDS011;1747;48.884;9.160;2024-01-15T02:28:03;16.83;;;6.32;;
3465;SDS011;1747;48.884;9.160;2024-01-15T02:30:31;19.65;;;6.10;;
3465;SDS011;1747;48.884;9.160;2024-01-15T02:32:58;17.27;;;6.20;;
3465;SDS011;1747;48.884;9.160;2024-01-15T02:35:25;14.88;;;5.78;;
3465;SDS011;1747;48.884;9.160;2024-01-15T02:37:52;18.45;;;5.22;;
3465;SDS011;1747;48.884;9.160;2024-01-15T02:40:20;20.20;;;6.93;;
3465;SDS011;1747;48.884;9.160;2024-01-15T02:42:47;15.77;;;6.20;;
3465;SDS011;1747;48.884;9.160;2024-01-15T02:45:14;16.73;;;6.55;;
3465;SDS011;1747;48.884;9.160;2024-01-15T02:47:40;20.15;;;6.75;;
3465;SDS011;1747;48.884;9.160;2024-01-15T02:50:07;18.42;;;6.40;;
3465;SDS011;1747;48.884;9.160;2024-01-15T02:52:34;16.27;;;6.22;;
3465;SDS011;1747;48.884;9.160;2024-01-15T02:55:01;17.48;;;5.78;;
3465;SDS011;1747;48.884;9.160;2024-01-15T02:57:29;16.60;;;6.20;;
3465;SDS011;1747;48.884;9.160;2024-01-15T02:59:56;13.57;;;5.78;;
3465;SDS011;1747;48.884;9.160;2024-01-15T03:02:23;15.95;;;6.00;;
3465;SDS011;1747;48.884;9.160;2024-01-15T03:04:50;18.13;;;6.20;;
3465;SDS011;1747;48.884;9.160;2024-01-15T03:07:17;17.02;;;6.00;;
3465;SDS011;1747;48.884;9.160;2024-01-15T03:09:44;16.73;;;5.60;;
3465;SDS011;1747;48.884;9.160;2024-01-15T03:12:11;14.23;;;5.43;;
3465;SDS011;1747;48.884;9.160;2024-01-15T03:14:39;16.63;;;5.53;;
3465;SDS011;1747;48.884;9.160;2024-01-15T03:17:06;17.55;;;6.32;;
3465;SDS011;1747;48.884;9.160;2024-01-15T03:19:34;17.08;;;6.05;;
3465;SDS011;1747;48.884;9.160;2024-01-15T03:22:01;14.82;;;5.68;;
3465;SDS011;1747;48.884;9.160;2024-01-15T03:24:28;17.52;;;5.88;;
3465;SDS011;1747;48.884;9.160;2024-01-15T03:26:55;13.80;;;5.65;;
3465;SDS011;1747;48.884;9.160;2024-01-15T03:29:22;18.92;;;6.30;;
3465;SDS011;1747;48.884;9.160;2024-01-15T03:31:50;18.30;;;6.53;;
3465;SDS011;1747;48.884;9.160;2024-01-15T03:34:17;15.63;;;6.15;;
3465;SDS011;1747;48.884;9.160;2024-01-15T03:36:44;12.65;;;5.80;;
3465;SDS011;1747;48.884;9.160;2024-01-15T03:39:11;16.63;;;6.30;;
3465;SDS011;1747;48.884;9.160;2024-01-15T03:41:38;17.63;;;6.43;;
3465;SDS011;1747;48.884;9.160;2024-01-15T03:44:04;17.80;;;5.28;;
3465;SDS011;1747;48.884;9.160;2024-01-15T03:46:31;15.45;;;5.80;;
3465;SDS011;1747;48.884;9.160;2024-01-15T03:49:00;16.90;;;6.10;;
3465;SDS011;1747;48.884;9.160;2024-01-15T03:51:27;13.68;;;5.75;;
3465;SDS011;1747;48.884;9.160;2024-01-15T03:53:54;16.60;;;5.38;;
3465;SDS011;1747;48.884;9.160;2024-01-15T03:56:20;15.35;;;5.60;;
3465;SDS011;1747;48.884;9.160;2024-01-15T03:58:47;13.77;;;5.53;;
3465;SDS011;1747;48.884;9.160;2024-01-15T04:01:14;15.05;;;5.45;;
3465;SDS011;1747;48.884;9.160;2024-01-15T04:03:41;15.07;;;5.53;;
3465;SDS011;1747;48.884;9.160;2024-01-15T04:06:09;16.33;;;4.97;;
3465;SDS011;1747;48.884;9.160;2024-01-15T04:08:36;11.93;;;5.22;;
3465;SDS011;1747;48.884;9.160;2024-01-15T04:11:02;10.90;;;4.65;;
3465;SDS011;1747;48.884;9.160;2024-01-15T04:13:31;14.82;;;5.00;;
3465;SDS011;1747;48.884;9.160;2024-01-15T04:15:59;12.98;;;5.47;;
3465;SDS011;1747;48.884;9.160;2024-01-15T04:18:26;15.90;;;6.53;;
3465;SDS011;1747;48.884;9.160;2024-01-15T04:20:53;13.18;;;5.80;;
3465;SDS011;1747;48.884;9.160;2024-01-15T04:23:21;14.68;;;4.85;;
3465;SDS011;1747;48.884;9.160;2024-01-15T04:25:48;10.57;;;5.00;;
3465;SDS011;1747;48.884;9.160;2024-01-15T04:28:15;15.18;;;5.22;;
3465;SDS011;1747;48.884;9.160;2024-01-15T04:30:42;10.00;;;4.43;;
3465;SDS011;1747;48.884;9.160;2024-01-15T04:33:09;9.20;;;4.32;;
3465;SDS011;1747;48.884;9.160;2024-01-15T04:35:35;11.75;;;5.00;;
3465;SDS011;1747;48.884;9.160;2024-01-15T04:38:03;13.57;;;5.22;;
3465;SDS011;1747;48.884;9.160;2024-01-15T04:40:31;10.88;;;4.88;;
3465;SDS011;1747;48.884;9.160;2024-01-15T04:42:58;11.52;;;4.35;;
3465;SDS011;1747;48.884;9.160;2024-01-15T04:45:25;15.63;;;4.80;;
3465;SDS011;1747;48.884;9.160;2024-01-15T04:47:53;10.85;;;4.47;;
3465;SDS011;1747;48.884;9.160;2024-01-15T04:50:21;12.15;;;3.80;;
3465;SDS011;1747;48.884;9.160;2024-01-15T04:52:48;10.35;;;4.25;;
3465;SDS011;1747;48.884;9.160;2024-01-15T04:55:15;8.68;;;4.28;;
3465;SDS011;1747;48.884;9.160;2024-01-15T04:57:43;10.10;;;4.10;;
3465;SDS011;1747;48.884;9.160;2024-01-15T05:00:11;11.80;;;4.15;;
3465;SDS011;1747;48.884;9.160;2024-01-15T05:02:39;12.43;;;5.10;;
3465;SDS011;1747;48.884;9.160;2024-01-15T05:05:05;13.00;;;4.57;;
3465;SDS011;1747;48.884;9.160;2024-01-15T05:07:32;12.82;;;4.60;;
3465;SDS011;1747;48.884;9.160;2024-01-15T05:09:59;9.40;;;4.38;;
3465;SDS011;1747;48.884;9.160;2024-01-15T05:12:26;9.05;;;4.18;;
3465;SDS011;1747;48.884;9.160;2024-01-15T05:14:54;9.57;;;3.78;;
3465;SDS011;1747;48.884;9.160;2024-01-15T05:17:21;11.43;;;4.38;;
3465;SDS011;1747;48.884;9.160;2024-01-15T05:19:48;10.27;;;4.30;;
3465;SDS011;1747;48.884;9.160;2024-01-15T05:22:15;12.38;;;4.60;;
3465;SDS011;1747;48.884;9.160;2024-01-15T05:24:41;8.90;;;4.65;;
3465;SDS011;1747;48.884;9.160;2024-01-15T05:27:08;10.23;;;5.40;;
3465;SDS011;1747;48.884;9.160;2024-01-15T05:29:35;14.15;;;4.65;;
3465;SDS011;1747;48.884;9.160;2024-01-15T05:32:03;15.13;;;6.07;;
3465;SDS011;1747;48.884;9.160;2024-01-15T05:34:30;14.88;;;6.60;;
3465;SDS011;1747;48.884;9.160;2024-01-15T05:36:57;12.88;;;4.80;;
3465;SDS011;1747;48.884;9.160;2024-01-15T05:39:23;15.50;;;6.53;;
3465;SDS011;1747;48.884;9.160;2024-01-15T05:41:50;16.05;;;6.75;;
3465;SDS011;1747;48.884;9.160;2024-01-15T05:44:17;14.57;;;6.03;;
3465;SDS011;1747;48.884;9.160;2024-01-15T05:46:44;13.63;;;4.80;;
3465;SDS011;1747;48.884;9.160;2024-01-15T05:49:12;16.55;;;7.13;;
3465;SDS011;1747;48.884;9.160;2024-01-15T05:51:39;14.57;;;6.07;;
3465;SDS011;1747;48.884;9.160;2024-01-15T05:54:06;13.70;;;6.05;;
3465;SDS011;1747;48.884;9.160;2024-01-15T05:56:32;15.77;;;6.03;;
3465;SDS011;1747;48.884;9.160;2024-01-15T05:58:59;13.98;;;6.40;;
3465;SDS011;1747;48.884;9.160;2024-01-15T06:01:26;15.95;;;5.95;;
3465;SDS011;1747;48.884;9.160;2024-01-15T06:03:53;13.43;;;6.90;;
3465;SDS011;1747;48.884;9.160;2024-01-15T06:06:21;14.20;;;6.07;;
3465;SDS011;1747;48.884;9.160;2024-01-15T06:08:48;14.90;;;5.38;;
3465;SDS011;1747;48.884;9.160;2024-01-15T06:11:15;17.30;;;5.55;;
3465;SDS011;1747;48.884;9.160;2024-01-15T06:13:42;15.50;;;5.43;;
3465;SDS011;1747;48.884;9.160;2024-01-15T06:16:13;12.02;;;5.05;;
3465;SDS011;1747;48.884;9.160;2024-01-15T06:18:40;13.35;;;5.70;;
3465;SDS011;1747;48.884;9.160;2024-01-15T06:21:07;14.93;;;6.80;;
3465;SDS011;1747;48.884;9.160;2024-01-15T06:23:36;13.68;;;5.15;;
3465;SDS011;1747;48.884;9.160;2024-01-15T06:26:03;14.27;;;6.88;;
3465;SDS011;1747;48.884;9.160;2024-01-15T06:28:30;11.25;;;5.03;;
3465;SDS011;1747;48.884;9.160;2024-01-15T06:30:57;10.73;;;5.10;;
3465;SDS011;1747;48.884;9.160;2024-01-15T06:33:24;11.60;;;4.45;;
3465;SDS011;1747;48.884;9.160;2024-01-15T06:35:51;13.90;;;5.78;;
3465;SDS011;1747;48.884;9.160;2024-01-15T06:38:18;13.90;;;7.10;;
3465;SDS011;1747;48.884;9.160;2024-01-15T06:40:46;14.00;;;6.05;;
3465;SDS011;1747;48.884;9.160;2024-01-15T06:43:13;9.50;;;4.68;;
3465;SDS011;1747;48.884;9.160;2024-01-15T06:45:40;14.50;;;5.25;;
3465;SDS011;1747;48.884;9.160;2024-01-15T06:48:07;12.25;;;5.45;;
3465;SDS011;1747;48.884;9.160;2024-01-15T06:50:34;18.98;;;7.78;;
3465;SDS011;1747;48.884;9.160;2024-01-15T06:53:01;9.65;;;5.05;;
3465;SDS011;1747;48.884;9.160;2024-01-15T06:55:27;12.68;;;6.43;;
3465;SDS011;1747;48.884;9.160;2024-01-15T06:57:55;32.33;;;22.08;;
3465;SDS011;1747;48.884;9.160;2024-01-15T07:00:22;18.75;;;11.27;;
3465;SDS011;1747;48.884;9.160;2024-01-15T07:02:49;14.20;;;5.97;;
3465;SDS011;1747;48.884;9.160;2024-01-15T07:05:16;13.38;;;5.53;;
3465;SDS011;1747;48.884;9.160;2024-01-15T07:07:43;12.88;;;5.88;;
3465;SDS011;1747;48.884;9.160;2024-01-15T07:10:10;12.73;;;6.35;;
3465;SDS011;1747;48.884;9.160;2024-01-15T07:12:37;10.10;;;4.70;;
3465;SDS011;1747;48.884;9.160;2024-01-15T07:15:06;15.85;;;5.63;;
3465;SDS011;1747;48.884;9.160;2024-01-15T07:17:33;13.48;;;5.60;;
3465;SDS011;1747;48.884;9.160;2024-01-15T07:20:00;17.75;;;6.22;;
3465;SDS011;1747;48.884;9.160;2024-01-15T07:22:27;12.63;;;5.05;;
3465;SDS011;1747;48.884;9.160;2024-01-15T07:24:54;12.07;;;5.35;;
3465;SDS011;1747;48.884;9.160;2024-01-15T07:27:21;11.25;;;5.30;;
3465;SDS011;1747;48.884;9.160;2024-01-15T07:29:48;12.95;;;5.43;;
3465;SDS011;1747;48.884;9.160;2024-01-15T07:32:16;12.35;;;4.82;;
3465;SDS011;1747;48.884;9.160;2024-01-15T07:34:43;14.07;;;5.60;;
3465;SDS011;1747;48.884;9.160;2024-01-15T07:37:10;14.35;;;5.22;;
3465;SDS011;1747;48.884;9.160;2024-01-15T07:39:36;13.65;;;4.88;;
3465;SDS011;1747;48.884;9.160;2024-01-15T07:42:03;13.85;;;5.45;;
3465;SDS011;1747;48.884;9.160;2024-01-15T07:44:30;9.27;;;4.80;;
3465;SDS011;1747;48.884;9.160;2024-01-15T07:46:57;11.13;;;5.00;;
3465;SDS011;1747;48.884;9.160;2024-01-15T07:49:25;12.73;;;5.25;;
3465;SDS011;1747;48.884;9.160;2024-01-15T07:51:52;11.80;;;5.43;;
3465;SDS011;1747;48.884;9.160;2024-01-15T07:54:19;12.80;;;4.50;;
3465;SDS011;1747;48.884;9.160;2024-01-15T07:56:55;12.15;;;4.70;;
3465;SDS011;1747;48.884;9.160;2024-01-15T07:59:23;10.02;;;4.45;;
3465;SDS011;1747;48.884;9.160;2024-01-15T08:01:51;9.95;;;4.32;;
3465;SDS011;1747;48.884;9.160;2024-01-15T08:04:18;10.50;;;4.68;;
3465;SDS011;1747;48.884;9.160;2024-01-15T08:06:47;14.85;;;7.18;;
3465;SDS011;1747;48.884;9.160;2024-01-15T08:09:14;12.02;;;6.05;;
3465;SDS011;1747;48.884;9.160;2024-01-15T08:11:41;11.80;;;5.55;;
3465;SDS011;1747;48.884;9.160;2024-01-15T08:14:08;9.18;;;4.88;;
3465;SDS011;1747;48.884;9.160;2024-01-15T08:16:35;11.93;;;6.03;;
3465;SDS011;1747;48.884;9.160;2024-01-15T08:19:02;8.85;;;4.45;;
3465;SDS011;1747;48.884;9.160;2024-01-15T08:21:29;9.55;;;4.07;;
3465;SDS011;1747;48.884;9.160;2024-01-15T08:23:58;9.50;;;4.22;;
3465;SDS011;1747;48.884;9.160;2024-01-15T08:26:25;13.68;;;4.53;;
3465;SDS011;1747;48.884;9.160;2024-01-15T08:28:52;11.18;;;4.30;;
3465;SDS011;1747;48.884;9.160;2024-01-15T08:31:19;11.27;;;4.20;;
3465;SDS011;1747;48.884;9.160;2024-01-15T08:33:46;7.03;;;3.85;;
3465;SDS011;1747;48.884;9.160;2024-01-15T08:36:13;9.65;;;3.58;;
3465;SDS011;1747;48.884;9.160;2024-01-15T08:38:39;9.65;;;3.67;;
3465;SDS011;1747;48.884;9.160;2024-01-15T08:41:08;9.52;;;3.97;;
3465;SDS011;1747;48.884;9.160;2024-01-15T08:43:34;9.15;;;3.90;;
3465;SDS011;1747;48.884;9.160;2024-01-15T08:46:01;9.10;;;3.85;;
3465;SDS011;1747;48.884;9.160;2024-01-15T08:48:28;11.07;;;4.55;;
3465;SDS011;1747;48.884;9.160;2024-01-15T08:50:55;9.18;;;3.47;;
3465;SDS011;1747;48.884;9.160;2024-01-15T08:53:22;10.57;;;3.80;;
3465;SDS011;1747;48.884;9.160;2024-01-15T08:55:49;13.88;;;6.05;;
3465;SDS011;1747;48.884;9.160;2024-01-15T08:58:17;11.40;;;5.20;;
3465;SDS011;1747;48.884;9.160;2024-01-15T09:00:44;10.20;;;4.15;;
3465;SDS011;1747;48.884;9.160;2024-01-15T09:03:11;10.20;;;5.63;;
3465;SDS011;1747;48.884;9.160;2024-01-15T09:05:38;9.60;;;4.97;;
3465;SDS011;1747;48.884;9.160;2024-01-15T09:08:05;9.88;;;4.47;;
3465;SDS011;1747;48.884;9.160;2024-01-15T09:10:32;9.52;;;4.15;;
3465;SDS011;1747;48.884;9.160;2024-01-15T09:12:59;11.70;;;4.50;;
3465;SDS011;1747;48.884;9.160;2024-01-15T09:15:27;8.68;;;3.88;;
3465;SDS011;1747;48.884;9.160;2024-01-15T09:17:54;9.43;;;3.87;;
3465;SDS011;1747;48.884;9.160;2024-01-15T09:20:22;9.95;;;3.97;;
3465;SDS011;1747;48.884;9.160;2024-01-15T09:22:50;7.07;;;3.22;;
3465;SDS011;1747;48.884;9.160;2024-01-15T09:25:17;6.28;;;3.08;;
3465;SDS011;1747;48.884;9.160;2024-01-15T09:27:45;6.85;;;3.10;;
3465;SDS011;1747;48.884;9.160;2024-01-15T09:30:12;8.90;;;3.35;;
3465;SDS011;1747;48.884;9.160;2024-01-15T09:32:40;7.10;;;3.35;;
3465;SDS011;1747;48.884;9.160;2024-01-15T09:35:07;8.48;;;4.25;;
3465;SDS011;1747;48.884;9.160;2024-01-15T09:37:34;8.52;;;3.20;;
3465;SDS011;1747;48.884;9.160;2024-01-15T09:40:02;9.27;;;3.13;;
3465;SDS011;1747;48.884;9.160;2024-01-15T09:42:29;10.07;;;5.35;;
3465;SDS011;1747;48.884;9.160;2024-01-15T09:44:57;12.55;;;3.85;;
3465;SDS011;1747;48.884;9.160;2024-01-15T09:47:24;6.20;;;3.33;;
3465;SDS011;1747;48.884;9.160;2024-01-15T09:49:52;6.85;;;3.47;;
3465;SDS011;1747;48.884;9.160;2024-01-15T09:52:19;7.20;;;3.70;;
3465;SDS011;1747;48.884;9.160;2024-01-15T09:54:46;6.55;;;3.28;;
3465;SDS011;1747;48.884;9.160;2024-01-15T09:57:14;6.63;;;3.22;;
3465;SDS011;1747;48.884;9.160;2024-01-15T09:59:41;7.93;;;3.80;;
3465;SDS011;1747;48.884;9.160;2024-01-15T10:02:09;7.88;;;3.10;;
3465;SDS011;1747;48.884;9.160;2024-01-15T10:04:42;9.27;;;2.80;;
3465;SDS011;1747;48.884;9.160;2024-01-15T10:07:10;5.25;;;2.95;;
3465;SDS011;1747;48.884;9.160;2024-01-15T10:09:41;6.15;;;2.80;;
3465;SDS011;1747;48.884;9.160;2024-01-15T10:12:07;7.15;;;3.20;;
3465;SDS011;1747;48.884;9.160;2024-01-15T10:14:36;5.97;;;2.95;;
3465;SDS011;1747;48.884;9.160;2024-01-15T10:17:11;5.72;;;2.55;;
3465;SDS011;1747;48.884;9.160;2024-01-15T10:19:39;7.53;;;3.10;;
3465;SDS011;1747;48.884;9.160;2024-01-15T10:22:07;7.30;;;2.90;;
3465;SDS011;1747;48.884;9.160;2024-01-15T10:24:36;6.00;;;3.03;;
3465;SDS011;1747;48.884;9.160;2024-01-15T10:27:06;6.28;;;3.75;;
3465;SDS011;1747;48.884;9.160;2024-01-15T10:29:34;8.38;;;3.50;;
3465;SDS011;1747;48.884;9.160;2024-01-15T10:32:02;9.38;;;3.00;;
3465;SDS011;1747;48.884;9.160;2024-01-15T10:34:30;10.70;;;4.90;;
3465;SDS011;1747;48.884;9.160;2024-01-15T10:36:56;9.40;;;5.13;;
3465;SDS011;1747;48.884;9.160;2024-01-15T10:39:23;8.45;;;3.63;;
3465;SDS011;1747;48.884;9.160;2024-01-15T10:41:52;9.13;;;3.53;;
3465;SDS011;1747;48.884;9.160;2024-01-15T10:44:18;7.95;;;2.83;;
3465;SDS011;1747;48.884;9.160;2024-01-15T10:46:45;5.43;;;3.05;;
3465;SDS011;1747;48.884;9.160;2024-01-15T10:49:13;5.43;;;3.38;;
3465;SDS011;1747;48.884;9.160;2024-01-15T10:51:41;5.78;;;3.28;;
3465;SDS011;1747;48.884;9.160;2024-01-15T10:54:09;8.90;;;3.92;;
3465;SDS011;1747;48.884;9.160;2024-01-15T10:56:37;5.82;;;2.92;;
3465;SDS011;1747;48.884;9.160;2024-01-15T10:59:06;8.55;;;3.65;;
3465;SDS011;1747;48.884;9.160;2024-01-15T11:01:35;7.82;;;3.28;;
3465;SDS011;1747;48.884;9.160;2024-01-15T11:04:03;6.03;;;3.00;;
3465;SDS011;1747;48.884;9.160;2024-01-15T11:06:40;5.75;;;3.03;;
3465;SDS011;1747;48.884;9.160;2024-01-15T11:09:08;8.05;;;2.50;;
3465;SDS011;1747;48.884;9.160;2024-01-15T11:11:35;5.40;;;2.92;;
3465;SDS011;1747;48.884;9.160;2024-01-15T11:14:02;12.45;;;3.90;;
3465;SDS011;1747;48.884;9.160;2024-01-15T11:16:53;6.05;;;2.90;;
3465;SDS011;1747;48.884;9.160;2024-01-15T11:19:21;6.47;;;3.10;;
3465;SDS011;1747;48.884;9.160;2024-01-15T11:21:48;5.53;;;3.28;;
3465;SDS011;1747;48.884;9.160;2024-01-15T11:27:01;7.50;;;3.75;;
3465;SDS011;1747;48.884;9.160;2024-01-15T11:29:28;8.90;;;3.20;;
3465;SDS011;1747;48.884;9.160;2024-01-15T11:31:58;6.72;;;3.10;;
3465;SDS011;1747;48.884;9.160;2024-01-15T11:37:19;9.23;;;2.92;;
3465;SDS011;1747;48.884;9.160;2024-01-15T11:39:49;9.33;;;3.87;;
3465;SDS011;1747;48.884;9.160;2024-01-15T11:42:21;7.32;;;3.70;;
3465;SDS011;1747;48.884;9.160;2024-01-15T11:44:48;9.57;;;3.33;;
3465;SDS011;1747;48.884;9.160;2024-01-15T11:47:20;6.75;;;3.25;;
3465;SDS011;1747;48.884;9.160;2024-01-15T11:50:10;6.78;;;3.65;;
3465;SDS011;1747;48.884;9.160;2024-01-15T11:52:38;8.07;;;3.70;;
3465;SDS011;1747;48.884;9.160;2024-01-15T11:55:16;6.05;;;2.75;;
3465;SDS011;1747;48.884;9.160;2024-01-15T11:57:48;6.65;;;2.97;;
3465;SDS011;1747;48.884;9.160;2024-01-15T12:00:17;6.00;;;3.20;;
3465;SDS011;1747;48.884;9.160;2024-01-15T12:02:47;5.95;;;3.05;;
3465;SDS011;1747;48.884;9.160;2024-01-15T12:05:16;10.73;;;3.72;;
3465;SDS011;1747;48.884;9.160;2024-01-15T12:07:45;8.85;;;3.55;;
3465;SDS011;1747;48.884;9.160;2024-01-15T12:10:13;8.25;;;4.15;;
3465;SDS011;1747;48.884;9.160;2024-01-15T12:12:50;8.00;;;3.78;;
3465;SDS011;1747;48.884;9.160;2024-01-15T12:15:23;11.63;;;4.07;;
3465;SDS011;1747;48.884;9.160;2024-01-15T12:17:52;7.80;;;3.47;;
3465;SDS011;1747;48.884;9.160;2024-01-15T12:20:20;14.07;;;7.13;;
3465;SDS011;1747;48.884;9.160;2024-01-15T12:22:47;8.30;;;4.38;;
3465;SDS011;1747;48.884;9.160;2024-01-15T12:25:14;10.40;;;3.95;;
3465;SDS011;1747;48.884;9.160;2024-01-15T12:27:41;8.40;;;5.47;;
3465;SDS011;1747;48.884;9.160;2024-01-15T12:30:10;8.50;;;5.22;;
3465;SDS011;1747;48.884;9.160;2024-01-15T12:32:38;9.57;;;3.95;;
3465;SDS011;1747;48.884;9.160;2024-01-15T12:35:07;6.82;;;3.17;;
3465;SDS011;1747;48.884;9.160;2024-01-15T12:37:35;6.07;;;3.53;;
3465;SDS011;1747;48.884;9.160;2024-01-15T12:40:02;10.63;;;4.57;;
3465;SDS011;1747;48.884;9.160;2024-01-15T12:42:29;9.65;;;3.97;;
3465;SDS011;1747;48.884;9.160;2024-01-15T12:44:56;9.18;;;5.35;;
3465;SDS011;1747;48.884;9.160;2024-01-15T12:47:23;7.78;;;3.60;;
3465;SDS011;1747;48.884;9.160;2024-01-15T12:49:51;16.27;;;4.03;;
3465;SDS011;1747;48.884;9.160;2024-01-15T12:52:21;8.50;;;3.65;;
3465;SDS011;1747;48.884;9.160;2024-01-15T12:54:48;9.80;;;3.50;;
3465;SDS011;1747;48.884;9.160;2024-01-15T12:57:15;7.85;;;3.63;;
3465;SDS011;1747;48.884;9.160;2024-01-15T12:59:42;9.38;;;3.63;;
3465;SDS011;1747;48.884;9.160;2024-01-15T13:02:09;9.02;;;4.03;;
3465;SDS011;1747;48.884;9.160;2024-01-15T13:04:36;5.97;;;3.33;;
3465;SDS011;1747;48.884;9.160;2024-01-15T13:07:04;9.50;;;4.85;;
3465;SDS011;1747;48.884;9.160;2024-01-15T13:09:32;8.70;;;3.65;;
3465;SDS011;1747;48.884;9.160;2024-01-15T13:11:59;10.98;;;3.70;;
3465;SDS011;1747;48.884;9.160;2024-01-15T13:14:27;5.63;;;3.35;;
3465;SDS011;1747;48.884;9.160;2024-01-15T13:16:54;10.20;;;3.03;;
3465;SDS011;1747;48.884;9.160;2024-01-15T13:19:21;9.90;;;2.97;;
3465;SDS011;1747;48.884;9.160;2024-01-15T13:21:48;9.32;;;5.05;;
3465;SDS011;1747;48.884;9.160;2024-01-15T13:24:16;4.95;;;3.88;;
3465;SDS011;1747;48.884;9.160;2024-01-15T13:26:44;6.75;;;3.88;;
3465;SDS011;1747;48.884;9.160;2024-01-15T13:29:12;6.40;;;4.55;;
3465;SDS011;1747;48.884;9.160;2024-01-15T13:31:39;4.90;;;2.95;;
3465;SDS011;1747;48.884;9.160;2024-01-15T13:34:06;8.07;;;4.03;;
3465;SDS011;1747;48.884;9.160;2024-01-15T13:36:34;6.07;;;3.90;;
3465;SDS011;1747;48.884;9.160;2024-01-15T13:39:04;6.38;;;3.35;;
3465;SDS011;1747;48.884;9.160;2024-01-15T13:41:34;6.13;;;3.28;;
3465;SDS011;1747;48.884;9.160;2024-01-15T13:44:02;4.60;;;2.55;;
3465;SDS011;1747;48.884;9.160;2024-01-15T13:46:29;7.30;;;3.95;;
3465;SDS011;1747;48.884;9.160;2024-01-15T13:48:56;7.38;;;4.65;;
3465;SDS011;1747;48.884;9.160;2024-01-15T13:51:23;11.43;;;6.63;;
3465;SDS011;1747;48.884;9.160;2024-01-15T13:53:51;9.13;;;5.28;;
3465;SDS011;1747;48.884;9.160;2024-01-15T13:56:18;10.57;;;6.70;;
3465;SDS011;1747;48.884;9.160;2024-01-15T13:58:46;7.55;;;3.65;;
3465;SDS011;1747;48.884;9.160;2024-01-15T14:01:16;7.40;;;3.92;;
3465;SDS011;1747;48.884;9.160;2024-01-15T14:03:47;6.70;;;3.42;;
3465;SDS011;1747;48.884;9.160;2024-01-15T14:06:14;10.13;;;3.55;;
3465;SDS011;1747;48.884;9.160;2024-01-15T14:08:41;6.35;;;3.40;;
3465;SDS011;1747;48.884;9.160;2024-01-15T14:11:08;6.20;;;3.53;;
3465;SDS011;1747;48.884;9.160;2024-01-15T14:13:35;6.90;;;3.78;;
3465;SDS011;1747;48.884;9.160;2024-01-15T14:16:03;7.75;;;3.83;;
3465;SDS011;1747;48.884;9.160;2024-01-15T14:18:31;8.20;;;4.03;;
3465;SDS011;1747;48.884;9.160;2024-01-15T14:20:59;6.53;;;3.95;;
3465;SDS011;1747;48.884;9.160;2024-01-15T14:23:27;9.77;;;4.53;;
3465;SDS011;1747;48.884;9.160;2024-01-15T14:25:56;9.15;;;4.72;;
3465;SDS011;1747;48.884;9.160;2024-01-15T14:28:23;9.15;;;4.55;;
3465;SDS011;1747;48.884;9.160;2024-01-15T14:30:50;8.23;;;5.03;;
3465;SDS011;1747;48.884;9.160;2024-01-15T14:33:17;10.77;;;6.38;;
3465;SDS011;1747;48.884;9.160;2024-01-15T14:35:47;12.98;;;7.40;;
3465;SDS011;1747;48.884;9.160;2024-01-15T14:38:14;10.02;;;6.13;;
3465;SDS011;1747;48.884;9.160;2024-01-15T14:40:40;7.65;;;4.65;;
3465;SDS011;1747;48.884;9.160;2024-01-15T14:43:09;10.10;;;6.00;;
3465;SDS011;1747;48.884;9.160;2024-01-15T14:45:36;11.25;;;6.22;;
3465;SDS011;1747;48.884;9.160;2024-01-15T14:48:03;11.82;;;6.90;;
3465;SDS011;1747;48.884;9.160;2024-01-15T14:50:30;18.92;;;10.05;;
3465;SDS011;1747;48.884;9.160;2024-01-15T14:52:58;10.98;;;6.13;;
3465;SDS011;1747;48.884;9.160;2024-01-15T14:55:24;15.10;;;9.60;;
3465;SDS011;1747;48.884;9.160;2024-01-15T14:57:51;15.23;;;9.68;;
3465;SDS011;1747;48.884;9.160;2024-01-15T15:00:19;10.00;;;6.00;;
3465;SDS011;1747;48.884;9.160;2024-01-15T15:02:46;12.68;;;7.55;;
3465;SDS011;1747;48.884;9.160;2024-01-15T15:05:13;13.77;;;7.63;;
3465;SDS011;1747;48.884;9.160;2024-01-15T15:07:42;11.27;;;6.32;;
3465;SDS011;1747;48.884;9.160;2024-01-15T15:10:10;13.70;;;7.95;;
3465;SDS011;1747;48.884;9.160;2024-01-15T15:12:37;10.13;;;5.78;;